sensor_id;sensor_type;location;lat;lon;timestamp;temperature;humidity
21635;DHT22;10979;48.306;9.830;2022-11-20T00:00:25;1.30;99.90
21635;DHT22;10979;48.306;9.830;2022-11-20T00:02:50;1.30;99.90
21635;DHT22;10979;48.306;9.830;2022-11-20T00:05:16;1.30;99.90
21635;DHT22;10979;48.306;9.830;2022-11-20T00:07:42;1.30;99.90
21635;DHT22;10979;48.306;9.830;2022-11-20T00:10:08;1.20;99.90
21635;DHT22;10979;48.306;9.830;2022-11-20T00:12:34;1.20;99.90
21635;DHT22;10979;48.306;9.830;2022-11-20T00:14:59;1.40;99.90
21635;DHT22;10979;48.306;9.830;2022-11-20T00:17:25;1.20;99.90
21635;DHT22;10979;48.306;9.830;2022-11-20T00:19:51;1.00;99.90
21635;DHT22;10979;48.306;9.830;2022-11-20T00:22:16;1.00;99.90
21635;DHT22;10979;48.306;9.830;2022-11-20T00:24:42;0.90;99.90
21635;DHT22;10979;48.306;9.830;2022-11-20T00:27:07;0.90;99.90
21635;DHT22;10979;48.306;9.830;2022-11-20T00:29:33;0.90;99.90
21635;DHT22;10979;48.306;9.830;2022-11-20T00:31:58;0.80;99.90
21635;DHT22;10979;48.306;9.830;2022-11-20T00:34:24;0.80;99.90
21635;DHT22;10979;48.306;9.830;2022-11-20T00:36:49;0.90;99.90
21635;DHT22;10979;48.306;9.830;2022-11-20T00:39:15;0.80;99.90
21635;DHT22;10979;48.306;9.830;2022-11-20T00:41:40;0.60;99.90
21635;DHT22;10979;48.306;9.830;2022-11-20T00:44:06;0.50;99.90
21635;DHT22;10979;48.306;9.830;2022-11-20T00:46:31;0.50;99.90
21635;DHT22;10979;48.306;9.830;2022-11-20T00:48:57;0.50;99.90
21635;DHT22;10979;48.306;9.830;2022-11-20T00:51:25;0.40;99.90
21635;DHT22;10979;48.306;9.830;2022-11-20T00:53:50;0.70;99.90
21635;DHT22;10979;48.306;9.830;2022-11-20T00:56:18;0.60;99.90
21635;DHT22;10979;48.306;9.830;2022-11-20T00:58:46;0.50;99.90
21635;DHT22;10979;48.306;9.830;2022-11-20T01:01:20;0.30;99.90
21635;DHT22;10979;48.306;9.830;2022-11-20T01:03:50;0.30;99.90
21635;DHT22;10979;48.306;9.830;2022-11-20T01:08:42;0.00;99.90
21635;DHT22;10979;48.306;9.830;2022-11-20T01:11:11;0.40;99.90
21635;DHT22;10979;48.306;9.830;2022-11-20T01:13:37;0.40;99.90
21635;DHT22;10979;48.306;9.830;2022-11-20T01:16:23;0.50;99.90
21635;DHT22;10979;48.306;9.830;2022-11-20T01:18:53;0.40;99.90
21635;DHT22;10979;48.306;9.830;2022-11-20T01:21:24;0.40;99.90
21635;DHT22;10979;48.306;9.830;2022-11-20T01:23:50;0.40;99.90
21635;DHT22;10979;48.306;9.830;2022-11-20T01:26:19;0.40;99.90
21635;DHT22;10979;48.306;9.830;2022-11-20T01:28:45;0.40;99.90
21635;DHT22;10979;48.306;9.830;2022-11-20T01:31:19;0.30;99.90
21635;DHT22;10979;48.306;9.830;2022-11-20T01:33:47;0.20;99.90
21635;DHT22;10979;48.306;9.830;2022-11-20T01:36:14;0.30;99.90
21635;DHT22;10979;48.306;9.830;2022-11-20T01:38:40;0.40;99.90
21635;DHT22;10979;48.306;9.830;2022-11-20T01:41:06;0.40;99.90
21635;DHT22;10979;48.306;9.830;2022-11-20T01:43:33;0.40;99.90
21635;DHT22;10979;48.306;9.830;2022-11-20T01:50:59;0.70;99.90
21635;DHT22;10979;48.306;9.830;2022-11-20T01:53:28;0.60;99.90
21635;DHT22;10979;48.306;9.830;2022-11-20T01:55:56;0.60;99.90
21635;DHT22;10979;48.306;9.830;2022-11-20T01:58:31;0.50;99.90
21635;DHT22;10979;48.306;9.830;2022-11-20T02:00:58;0.40;99.90
21635;DHT22;10979;48.306;9.830;2022-11-20T02:03:24;0.60;99.90
21635;DHT22;10979;48.306;9.830;2022-11-20T02:08:23;0.70;99.90
21635;DHT22;10979;48.306;9.830;2022-11-20T02:10:49;0.80;99.90
21635;DHT22;10979;48.306;9.830;2022-11-20T02:13:15;0.80;99.90
21635;DHT22;10979;48.306;9.830;2022-11-20T02:16:00;0.90;99.90
21635;DHT22;10979;48.306;9.830;2022-11-20T02:18:26;1.00;99.90
21635;DHT22;10979;48.306;9.830;2022-11-20T02:21:01;1.10;99.90
21635;DHT22;10979;48.306;9.830;2022-11-20T02:23:39;1.30;99.90
21635;DHT22;10979;48.306;9.830;2022-11-20T02:26:11;1.30;99.90
21635;DHT22;10979;48.306;9.830;2022-11-20T02:28:38;1.30;99.90
21635;DHT22;10979;48.306;9.830;2022-11-20T02:31:04;1.20;99.90
21635;DHT22;10979;48.306;9.830;2022-11-20T02:33:29;1.10;99.90
21635;DHT22;10979;48.306;9.830;2022-11-20T02:35:55;1.00;99.90
21635;DHT22;10979;48.306;9.830;2022-11-20T02:38:20;0.80;99.90
21635;DHT22;10979;48.306;9.830;2022-11-20T02:40:46;0.80;99.90
21635;DHT22;10979;48.306;9.830;2022-11-20T02:43:12;0.90;99.90
21635;DHT22;10979;48.306;9.830;2022-11-20T02:45:37;0.80;99.90
21635;DHT22;10979;48.306;9.830;2022-11-20T02:48:03;0.70;99.90
21635;DHT22;10979;48.306;9.830;2022-11-20T02:50:29;0.50;99.90
21635;DHT22;10979;48.306;9.830;2022-11-20T02:52:54;0.70;99.90
21635;DHT22;10979;48.306;9.830;2022-11-20T02:55:20;0.60;99.90
21635;DHT22;10979;48.306;9.830;2022-11-20T02:57:45;0.70;99.90
21635;DHT22;10979;48.306;9.830;2022-11-20T03:00:11;0.90;99.90
21635;DHT22;10979;48.306;9.830;2022-11-20T03:02:37;1.00;99.90
21635;DHT22;10979;48.306;9.830;2022-11-20T03:05:03;1.00;99.90
21635;DHT22;10979;48.306;9.830;2022-11-20T03:07:28;1.20;99.90
21635;DHT22;10979;48.306;9.830;2022-11-20T03:09:54;1.20;99.90
21635;DHT22;10979;48.306;9.830;2022-11-20T03:12:20;1.20;99.90
21635;DHT22;10979;48.306;9.830;2022-11-20T03:14:45;1.30;99.90
21635;DHT22;10979;48.306;9.830;2022-11-20T03:17:11;1.20;99.90
21635;DHT22;10979;48.306;9.830;2022-11-20T03:19:36;1.30;99.90
21635;DHT22;10979;48.306;9.830;2022-11-20T03:22:02;1.30;99.90
21635;DHT22;10979;48.306;9.830;2022-11-20T03:24:28;1.30;99.90
21635;DHT22;10979;48.306;9.830;2022-11-20T03:26:53;1.40;99.90
21635;DHT22;10979;48.306;9.830;2022-11-20T03:29:19;1.50;99.90
21635;DHT22;10979;48.306;9.830;2022-11-20T03:31:45;1.60;99.90
21635;DHT22;10979;48.306;9.830;2022-11-20T03:34:11;1.70;99.90
21635;DHT22;10979;48.306;9.830;2022-11-20T03:36:41;1.70;99.90
21635;DHT22;10979;48.306;9.830;2022-11-20T03:39:07;1.80;99.90
21635;DHT22;10979;48.306;9.830;2022-11-20T03:41:37;1.90;99.90
21635;DHT22;10979;48.306;9.830;2022-11-20T03:44:05;2.00;99.90
21635;DHT22;10979;48.306;9.830;2022-11-20T03:46:31;2.00;99.90
21635;DHT22;10979;48.306;9.830;2022-11-20T03:48:57;2.10;99.90
21635;DHT22;10979;48.306;9.830;2022-11-20T03:51:25;2.10;99.90
21635;DHT22;10979;48.306;9.830;2022-11-20T03:53:53;2.20;99.90
21635;DHT22;10979;48.306;9.830;2022-11-20T03:56:25;2.30;99.90
21635;DHT22;10979;48.306;9.830;2022-11-20T03:58:51;2.30;99.90
21635;DHT22;10979;48.306;9.830;2022-11-20T04:01:19;2.30;99.90
21635;DHT22;10979;48.306;9.830;2022-11-20T04:03:45;2.30;99.90
21635;DHT22;10979;48.306;9.830;2022-11-20T04:06:19;2.40;99.90
21635;DHT22;10979;48.306;9.830;2022-11-20T04:08:46;2.30;99.90
21635;DHT22;10979;48.306;9.830;2022-11-20T04:11:20;2.30;99.90
21635;DHT22;10979;48.306;9.830;2022-11-20T04:13:48;2.30;99.90
21635;DHT22;10979;48.306;9.830;2022-11-20T04:16:15;2.20;99.90
21635;DHT22;10979;48.306;9.830;2022-11-20T04:18:41;2.00;99.90
21635;DHT22;10979;48.306;9.830;2022-11-20T04:21:07;1.90;99.90
21635;DHT22;10979;48.306;9.830;2022-11-20T04:23:33;1.80;99.90
21635;DHT22;10979;48.306;9.830;2022-11-20T04:26:07;1.70;99.90
21635;DHT22;10979;48.306;9.830;2022-11-20T04:28:33;1.70;99.90
21635;DHT22;10979;48.306;9.830;2022-11-20T04:31:13;1.70;99.90
21635;DHT22;10979;48.306;9.830;2022-11-20T04:33:40;1.60;99.90
21635;DHT22;10979;48.306;9.830;2022-11-20T04:38:33;1.40;99.90
21635;DHT22;10979;48.306;9.830;2022-11-20T04:41:00;1.40;99.90
21635;DHT22;10979;48.306;9.830;2022-11-20T04:43:26;1.50;99.90
21635;DHT22;10979;48.306;9.830;2022-11-20T04:45:55;1.40;99.90
21635;DHT22;10979;48.306;9.830;2022-11-20T04:48:21;1.50;99.90
21635;DHT22;10979;48.306;9.830;2022-11-20T04:50:47;1.60;99.90
21635;DHT22;10979;48.306;9.830;2022-11-20T04:53:14;1.60;99.90
21635;DHT22;10979;48.306;9.830;2022-11-20T04:55:39;1.70;99.90
21635;DHT22;10979;48.306;9.830;2022-11-20T04:58:05;1.70;99.90
21635;DHT22;10979;48.306;9.830;2022-11-20T05:00:31;1.90;99.90
21635;DHT22;10979;48.306;9.830;2022-11-20T05:02:57;2.10;99.90
21635;DHT22;10979;48.306;9.830;2022-11-20T05:05:22;2.20;99.90
21635;DHT22;10979;48.306;9.830;2022-11-20T05:07:48;2.30;99.90
21635;DHT22;10979;48.306;9.830;2022-11-20T05:10:13;2.40;99.90
21635;DHT22;10979;48.306;9.830;2022-11-20T05:12:39;2.50;99.90
21635;DHT22;10979;48.306;9.830;2022-11-20T05:15:05;2.50;99.90
21635;DHT22;10979;48.306;9.830;2022-11-20T05:17:31;2.60;99.90
21635;DHT22;10979;48.306;9.830;2022-11-20T05:19:56;2.60;99.90
21635;DHT22;10979;48.306;9.830;2022-11-20T05:22:22;2.70;99.90
21635;DHT22;10979;48.306;9.830;2022-11-20T05:24:47;2.70;99.90
21635;DHT22;10979;48.306;9.830;2022-11-20T05:27:13;2.70;99.90
21635;DHT22;10979;48.306;9.830;2022-11-20T05:29:38;2.70;99.90
21635;DHT22;10979;48.306;9.830;2022-11-20T05:32:04;2.70;99.90
21635;DHT22;10979;48.306;9.830;2022-11-20T05:34:31;2.70;99.90
21635;DHT22;10979;48.306;9.830;2022-11-20T05:36:57;2.70;99.90
21635;DHT22;10979;48.306;9.830;2022-11-20T05:39:22;2.80;99.90
21635;DHT22;10979;48.306;9.830;2022-11-20T05:41:48;2.80;99.90
21635;DHT22;10979;48.306;9.830;2022-11-20T05:44:33;2.80;99.90
21635;DHT22;10979;48.306;9.830;2022-11-20T05:46:59;2.80;99.90
21635;DHT22;10979;48.306;9.830;2022-11-20T05:49:24;2.80;99.90
21635;DHT22;10979;48.306;9.830;2022-11-20T05:51:50;2.80;99.90
21635;DHT22;10979;48.306;9.830;2022-11-20T05:54:15;3.00;99.90
21635;DHT22;10979;48.306;9.830;2022-11-20T05:56:41;3.00;99.90
21635;DHT22;10979;48.306;9.830;2022-11-20T05:59:07;3.00;99.90
21635;DHT22;10979;48.306;9.830;2022-11-20T06:01:32;3.00;99.90
21635;DHT22;10979;48.306;9.830;2022-11-20T06:03:58;3.00;99.90
21635;DHT22;10979;48.306;9.830;2022-11-20T06:06:23;3.10;99.90
21635;DHT22;10979;48.306;9.830;2022-11-20T06:08:51;3.10;99.90
21635;DHT22;10979;48.306;9.830;2022-11-20T06:11:17;3.10;99.90
21635;DHT22;10979;48.306;9.830;2022-11-20T06:13:43;3.00;99.90
21635;DHT22;10979;48.306;9.830;2022-11-20T06:16:10;3.10;99.90
21635;DHT22;10979;48.306;9.830;2022-11-20T06:18:37;3.10;99.90
21635;DHT22;10979;48.306;9.830;2022-11-20T06:21:06;3.10;99.90
21635;DHT22;10979;48.306;9.830;2022-11-20T06:23:33;3.00;99.90
21635;DHT22;10979;48.306;9.830;2022-11-20T06:26:11;3.00;99.90
21635;DHT22;10979;48.306;9.830;2022-11-20T06:28:37;3.00;99.90
21635;DHT22;10979;48.306;9.830;2022-11-20T06:31:03;2.90;99.90
21635;DHT22;10979;48.306;9.830;2022-11-20T06:33:29;2.80;99.90
21635;DHT22;10979;48.306;9.830;2022-11-20T06:35:59;2.80;99.90
21635;DHT22;10979;48.306;9.830;2022-11-20T06:38:25;2.80;99.90
21635;DHT22;10979;48.306;9.830;2022-11-20T06:40:51;2.80;99.90
21635;DHT22;10979;48.306;9.830;2022-11-20T06:43:16;2.90;99.90
21635;DHT22;10979;48.306;9.830;2022-11-20T06:45:42;2.90;99.90
21635;DHT22;10979;48.306;9.830;2022-11-20T06:48:08;2.90;99.90
21635;DHT22;10979;48.306;9.830;2022-11-20T06:50:36;2.90;99.90
21635;DHT22;10979;48.306;9.830;2022-11-20T06:53:02;2.90;99.90
21635;DHT22;10979;48.306;9.830;2022-11-20T06:55:29;3.00;99.90
21635;DHT22;10979;48.306;9.830;2022-11-20T06:57:55;3.00;99.90
21635;DHT22;10979;48.306;9.830;2022-11-20T07:00:20;3.00;99.90
21635;DHT22;10979;48.306;9.830;2022-11-20T07:02:46;3.00;99.90
21635;DHT22;10979;48.306;9.830;2022-11-20T07:05:11;3.00;99.90
21635;DHT22;10979;48.306;9.830;2022-11-20T07:07:37;3.10;99.90
21635;DHT22;10979;48.306;9.830;2022-11-20T07:10:03;3.10;99.90
21635;DHT22;10979;48.306;9.830;2022-11-20T07:12:28;3.10;99.90
21635;DHT22;10979;48.306;9.830;2022-11-20T07:14:54;3.20;99.90
21635;DHT22;10979;48.306;9.830;2022-11-20T07:17:20;3.20;99.90
21635;DHT22;10979;48.306;9.830;2022-11-20T07:19:45;3.30;99.90
21635;DHT22;10979;48.306;9.830;2022-11-20T07:22:11;3.40;99.90
21635;DHT22;10979;48.306;9.830;2022-11-20T07:24:36;3.40;99.90
21635;DHT22;10979;48.306;9.830;2022-11-20T07:27:02;3.40;99.90
21635;DHT22;10979;48.306;9.830;2022-11-20T07:29:29;3.50;99.90
21635;DHT22;10979;48.306;9.830;2022-11-20T07:31:54;3.50;99.90
21635;DHT22;10979;48.306;9.830;2022-11-20T07:34:21;3.60;99.90
21635;DHT22;10979;48.306;9.830;2022-11-20T07:36:47;3.70;99.90
21635;DHT22;10979;48.306;9.830;2022-11-20T07:39:12;3.80;99.90
21635;DHT22;10979;48.306;9.830;2022-11-20T07:41:38;3.80;99.90
21635;DHT22;10979;48.306;9.830;2022-11-20T07:44:03;3.80;99.90
21635;DHT22;10979;48.306;9.830;2022-11-20T07:46:29;4.30;99.90
21635;DHT22;10979;48.306;9.830;2022-11-20T07:48:54;4.40;99.90
21635;DHT22;10979;48.306;9.830;2022-11-20T07:51:20;4.10;99.90
21635;DHT22;10979;48.306;9.830;2022-11-20T07:53:46;4.10;99.90
21635;DHT22;10979;48.306;9.830;2022-11-20T07:56:11;4.00;99.90
21635;DHT22;10979;48.306;9.830;2022-11-20T07:58:37;4.00;99.90
21635;DHT22;10979;48.306;9.830;2022-11-20T08:01:07;4.00;99.90
21635;DHT22;10979;48.306;9.830;2022-11-20T08:03:32;3.90;99.90
21635;DHT22;10979;48.306;9.830;2022-11-20T08:05:59;3.90;99.90
21635;DHT22;10979;48.306;9.830;2022-11-20T08:08:26;3.90;99.90
21635;DHT22;10979;48.306;9.830;2022-11-20T08:10:52;3.90;99.90
21635;DHT22;10979;48.306;9.830;2022-11-20T08:13:18;3.90;99.90
21635;DHT22;10979;48.306;9.830;2022-11-20T08:16:01;3.90;99.90
21635;DHT22;10979;48.306;9.830;2022-11-20T08:18:27;3.90;99.90
21635;DHT22;10979;48.306;9.830;2022-11-20T08:20:53;4.00;99.90
21635;DHT22;10979;48.306;9.830;2022-11-20T08:23:18;4.00;99.90
21635;DHT22;10979;48.306;9.830;2022-11-20T08:25:49;4.00;99.90
21635;DHT22;10979;48.306;9.830;2022-11-20T08:28:52;4.10;99.90
21635;DHT22;10979;48.306;9.830;2022-11-20T08:31:25;4.20;99.90
21635;DHT22;10979;48.306;9.830;2022-11-20T08:33:52;4.20;99.90
21635;DHT22;10979;48.306;9.830;2022-11-20T08:36:19;4.30;99.90
21635;DHT22;10979;48.306;9.830;2022-11-20T08:38:49;4.40;99.90
21635;DHT22;10979;48.306;9.830;2022-11-20T08:41:15;4.40;99.90
21635;DHT22;10979;48.306;9.830;2022-11-20T08:43:59;4.50;99.90
21635;DHT22;10979;48.306;9.830;2022-11-20T08:46:26;4.60;99.90
21635;DHT22;10979;48.306;9.830;2022-11-20T08:48:53;4.70;99.90
21635;DHT22;10979;48.306;9.830;2022-11-20T08:51:20;4.90;99.90
21635;DHT22;10979;48.306;9.830;2022-11-20T08:53:46;5.00;99.90
21635;DHT22;10979;48.306;9.830;2022-11-20T08:56:14;5.20;99.90
21635;DHT22;10979;48.306;9.830;2022-11-20T08:58:40;5.20;99.90
21635;DHT22;10979;48.306;9.830;2022-11-20T09:01:06;5.20;99.90
21635;DHT22;10979;48.306;9.830;2022-11-20T09:03:31;5.30;99.90
21635;DHT22;10979;48.306;9.830;2022-11-20T09:06:01;5.40;99.90
21635;DHT22;10979;48.306;9.830;2022-11-20T09:08:28;5.40;99.90
21635;DHT22;10979;48.306;9.830;2022-11-20T09:10:55;5.20;99.90
21635;DHT22;10979;48.306;9.830;2022-11-20T09:13:21;5.20;99.90
21635;DHT22;10979;48.306;9.830;2022-11-20T09:15:51;5.10;99.90
21635;DHT22;10979;48.306;9.830;2022-11-20T09:18:17;5.10;99.90
21635;DHT22;10979;48.306;9.830;2022-11-20T09:20:43;5.10;99.90
21635;DHT22;10979;48.306;9.830;2022-11-20T09:23:09;5.20;99.90
21635;DHT22;10979;48.306;9.830;2022-11-20T09:25:35;5.20;99.90
21635;DHT22;10979;48.306;9.830;2022-11-20T09:28:00;5.20;99.90
21635;DHT22;10979;48.306;9.830;2022-11-20T09:30:26;5.20;99.90
21635;DHT22;10979;48.306;9.830;2022-11-20T09:32:52;5.30;99.90
21635;DHT22;10979;48.306;9.830;2022-11-20T09:35:18;5.30;99.90
21635;DHT22;10979;48.306;9.830;2022-11-20T09:37:44;5.40;99.90
21635;DHT22;10979;48.306;9.830;2022-11-20T09:40:21;5.40;99.90
21635;DHT22;10979;48.306;9.830;2022-11-20T09:48:20;5.60;99.90
21635;DHT22;10979;48.306;9.830;2022-11-20T09:51:20;5.70;99.90
21635;DHT22;10979;48.306;9.830;2022-11-20T09:56:45;5.80;99.90
21635;DHT22;10979;48.306;9.830;2022-11-20T09:59:38;5.90;99.90
21635;DHT22;10979;48.306;9.830;2022-11-20T10:02:43;6.00;99.90
21635;DHT22;10979;48.306;9.830;2022-11-20T10:05:27;6.00;99.90
21635;DHT22;10979;48.306;9.830;2022-11-20T10:08:04;6.20;99.90
21635;DHT22;10979;48.306;9.830;2022-11-20T10:10:44;6.10;99.90
21635;DHT22;10979;48.306;9.830;2022-11-20T10:16:16;6.20;99.90
21635;DHT22;10979;48.306;9.830;2022-11-20T10:27:35;6.30;99.90
21635;DHT22;10979;48.306;9.830;2022-11-20T10:30:11;6.30;99.90
21635;DHT22;10979;48.306;9.830;2022-11-20T10:32:48;6.40;99.90
21635;DHT22;10979;48.306;9.830;2022-11-20T10:38:02;6.50;99.90
21635;DHT22;10979;48.306;9.830;2022-11-20T10:40:39;6.60;99.90
21635;DHT22;10979;48.306;9.830;2022-11-20T10:45:52;6.50;99.90
21635;DHT22;10979;48.306;9.830;2022-11-20T10:48:30;6.30;99.90
21635;DHT22;10979;48.306;9.830;2022-11-20T10:56:41;6.40;99.90
21635;DHT22;10979;48.306;9.830;2022-11-20T11:02:20;6.20;99.90
21635;DHT22;10979;48.306;9.830;2022-11-20T11:04:50;6.30;99.90
21635;DHT22;10979;48.306;9.830;2022-11-20T11:09:52;6.30;99.90
21635;DHT22;10979;48.306;9.830;2022-11-20T11:12:19;6.20;99.90
21635;DHT22;10979;48.306;9.830;2022-11-20T11:14:50;6.20;99.90
21635;DHT22;10979;48.306;9.830;2022-11-20T11:17:31;6.40;99.90
21635;DHT22;10979;48.306;9.830;2022-11-20T11:22:23;6.40;99.90
21635;DHT22;10979;48.306;9.830;2022-11-20T11:24:52;6.50;99.90
21635;DHT22;10979;48.306;9.830;2022-11-20T11:27:18;6.40;99.90
21635;DHT22;10979;48.306;9.830;2022-11-20T11:29:45;6.30;99.90
21635;DHT22;10979;48.306;9.830;2022-11-20T11:32:20;6.40;99.90
21635;DHT22;10979;48.306;9.830;2022-11-20T11:35:04;6.40;99.90
21635;DHT22;10979;48.306;9.830;2022-11-20T11:37:34;6.50;99.90
21635;DHT22;10979;48.306;9.830;2022-11-20T11:40:02;6.40;99.90
21635;DHT22;10979;48.306;9.830;2022-11-20T11:42:28;6.40;99.90
21635;DHT22;10979;48.306;9.830;2022-11-20T11:44:58;6.50;99.90
21635;DHT22;10979;48.306;9.830;2022-11-20T11:50:20;6.60;99.90
21635;DHT22;10979;48.306;9.830;2022-11-20T11:56:03;6.40;99.90
21635;DHT22;10979;48.306;9.830;2022-11-20T12:06:57;7.10;99.90
21635;DHT22;10979;48.306;9.830;2022-11-20T12:09:25;7.20;99.90
21635;DHT22;10979;48.306;9.830;2022-11-20T12:12:08;7.30;99.90
21635;DHT22;10979;48.306;9.830;2022-11-20T12:14:43;7.20;99.90
21635;DHT22;10979;48.306;9.830;2022-11-20T12:17:12;7.30;99.90
21635;DHT22;10979;48.306;9.830;2022-11-20T12:19:39;7.10;99.90
21635;DHT22;10979;48.306;9.830;2022-11-20T12:24:48;7.20;99.90
21635;DHT22;10979;48.306;9.830;2022-11-20T12:27:29;7.20;99.90
21635;DHT22;10979;48.306;9.830;2022-11-20T12:30:15;7.20;99.90
21635;DHT22;10979;48.306;9.830;2022-11-20T12:50:00;7.50;99.90
21635;DHT22;10979;48.306;9.830;2022-11-20T12:52:51;7.40;99.90
21635;DHT22;10979;48.306;9.830;2022-11-20T12:58:08;7.30;99.90
21635;DHT22;10979;48.306;9.830;2022-11-20T13:00:37;7.20;99.90
21635;DHT22;10979;48.306;9.830;2022-11-20T13:03:45;7.20;99.90
21635;DHT22;10979;48.306;9.830;2022-11-20T13:06:19;7.50;99.90
21635;DHT22;10979;48.306;9.830;2022-11-20T13:08:52;7.40;99.90
21635;DHT22;10979;48.306;9.830;2022-11-20T13:16:57;7.60;99.90
21635;DHT22;10979;48.306;9.830;2022-11-20T13:19:24;7.70;99.90
21635;DHT22;10979;48.306;9.830;2022-11-20T13:21:51;7.70;99.90
21635;DHT22;10979;48.306;9.830;2022-11-20T13:26:46;7.60;99.90
21635;DHT22;10979;48.306;9.830;2022-11-20T13:29:18;7.40;99.90
21635;DHT22;10979;48.306;9.830;2022-11-20T13:31:48;7.30;99.90
21635;DHT22;10979;48.306;9.830;2022-11-20T13:34:25;7.40;99.90
21635;DHT22;10979;48.306;9.830;2022-11-20T13:36:54;7.20;99.90
21635;DHT22;10979;48.306;9.830;2022-11-20T13:39:28;7.20;99.90
21635;DHT22;10979;48.306;9.830;2022-11-20T13:41:57;7.10;99.90
21635;DHT22;10979;48.306;9.830;2022-11-20T13:44:35;7.20;99.90
21635;DHT22;10979;48.306;9.830;2022-11-20T13:47:03;7.10;99.90
21635;DHT22;10979;48.306;9.830;2022-11-20T13:49:39;7.00;99.90
21635;DHT22;10979;48.306;9.830;2022-11-20T13:58:00;7.00;99.90
21635;DHT22;10979;48.306;9.830;2022-11-20T14:00:30;6.90;99.90
21635;DHT22;10979;48.306;9.830;2022-11-20T14:03:23;6.90;99.90
21635;DHT22;10979;48.306;9.830;2022-11-20T14:05:51;6.90;99.90
21635;DHT22;10979;48.306;9.830;2022-11-20T14:08:26;7.00;99.90
21635;DHT22;10979;48.306;9.830;2022-11-20T14:11:03;6.90;99.90
21635;DHT22;10979;48.306;9.830;2022-11-20T14:13:29;6.90;99.90
21635;DHT22;10979;48.306;9.830;2022-11-20T14:15:58;6.80;99.90
21635;DHT22;10979;48.306;9.830;2022-11-20T14:18:25;6.80;99.90
21635;DHT22;10979;48.306;9.830;2022-11-20T14:20:51;6.80;99.90
21635;DHT22;10979;48.306;9.830;2022-11-20T14:23:27;6.80;99.90
21635;DHT22;10979;48.306;9.830;2022-11-20T14:25:53;6.80;99.90
21635;DHT22;10979;48.306;9.830;2022-11-20T14:28:30;6.80;99.90
21635;DHT22;10979;48.306;9.830;2022-11-20T14:30:56;6.90;99.90
21635;DHT22;10979;48.306;9.830;2022-11-20T14:33:23;6.90;99.90
21635;DHT22;10979;48.306;9.830;2022-11-20T14:35:55;6.80;99.90
21635;DHT22;10979;48.306;9.830;2022-11-20T14:38:25;6.80;99.90
21635;DHT22;10979;48.306;9.830;2022-11-20T14:40:52;6.70;99.90
21635;DHT22;10979;48.306;9.830;2022-11-20T14:43:28;6.70;99.90
21635;DHT22;10979;48.306;9.830;2022-11-20T14:46:05;6.70;99.90
21635;DHT22;10979;48.306;9.830;2022-11-20T14:48:55;6.70;99.90
21635;DHT22;10979;48.306;9.830;2022-11-20T14:51:33;6.40;99.90
21635;DHT22;10979;48.306;9.830;2022-11-20T14:54:20;6.10;99.90
21635;DHT22;10979;48.306;9.830;2022-11-20T15:02:43;5.80;99.90
21635;DHT22;10979;48.306;9.830;2022-11-20T15:05:09;5.90;99.90
21635;DHT22;10979;48.306;9.830;2022-11-20T15:07:38;6.00;99.90
21635;DHT22;10979;48.306;9.830;2022-11-20T15:10:11;5.80;99.90
21635;DHT22;10979;48.306;9.830;2022-11-20T15:12:38;5.60;99.90
21635;DHT22;10979;48.306;9.830;2022-11-20T15:15:05;5.60;99.90
21635;DHT22;10979;48.306;9.830;2022-11-20T15:17:32;5.60;99.90
21635;DHT22;10979;48.306;9.830;2022-11-20T15:20:05;5.40;99.90
21635;DHT22;10979;48.306;9.830;2022-11-20T15:22:37;5.10;99.90
21635;DHT22;10979;48.306;9.830;2022-11-20T15:25:12;4.90;99.90
21635;DHT22;10979;48.306;9.830;2022-11-20T15:27:37;4.70;99.90
21635;DHT22;10979;48.306;9.830;2022-11-20T15:30:16;4.60;99.90
21635;DHT22;10979;48.306;9.830;2022-11-20T15:32:43;4.50;99.90
21635;DHT22;10979;48.306;9.830;2022-11-20T15:35:09;4.40;99.90
21635;DHT22;10979;48.306;9.830;2022-11-20T15:37:37;4.30;99.90
21635;DHT22;10979;48.306;9.830;2022-11-20T15:40:03;4.30;99.90
21635;DHT22;10979;48.306;9.830;2022-11-20T15:42:29;4.20;99.90
21635;DHT22;10979;48.306;9.830;2022-11-20T15:44:54;4.20;99.90
21635;DHT22;10979;48.306;9.830;2022-11-20T15:47:25;4.10;99.90
21635;DHT22;10979;48.306;9.830;2022-11-20T15:49:52;4.00;99.90
21635;DHT22;10979;48.306;9.830;2022-11-20T15:52:18;4.00;99.90
21635;DHT22;10979;48.306;9.830;2022-11-20T15:54:43;4.00;99.90
21635;DHT22;10979;48.306;9.830;2022-11-20T15:57:09;3.90;99.90
21635;DHT22;10979;48.306;9.830;2022-11-20T15:59:34;4.00;99.90
21635;DHT22;10979;48.306;9.830;2022-11-20T16:02:09;4.00;99.90
21635;DHT22;10979;48.306;9.830;2022-11-20T16:04:35;4.00;99.90
21635;DHT22;10979;48.306;9.830;2022-11-20T16:07:01;4.00;99.90
21635;DHT22;10979;48.306;9.830;2022-11-20T16:09:26;3.90;99.90
21635;DHT22;10979;48.306;9.830;2022-11-20T16:11:52;3.90;99.90
21635;DHT22;10979;48.306;9.830;2022-11-20T16:14:17;3.80;99.90
21635;DHT22;10979;48.306;9.830;2022-11-20T16:17:05;3.80;99.90
21635;DHT22;10979;48.306;9.830;2022-11-20T16:19:31;3.80;99.90
21635;DHT22;10979;48.306;9.830;2022-11-20T16:21:59;3.70;99.90
21635;DHT22;10979;48.306;9.830;2022-11-20T16:24:28;3.80;99.90
21635;DHT22;10979;48.306;9.830;2022-11-20T16:26:54;3.80;99.90
21635;DHT22;10979;48.306;9.830;2022-11-20T16:29:19;3.80;99.90
21635;DHT22;10979;48.306;9.830;2022-11-20T16:31:45;3.80;99.90
21635;DHT22;10979;48.306;9.830;2022-11-20T16:34:11;3.80;99.90
21635;DHT22;10979;48.306;9.830;2022-11-20T16:36:39;3.80;99.90
21635;DHT22;10979;48.306;9.830;2022-11-20T16:39:05;3.80;99.90
21635;DHT22;10979;48.306;9.830;2022-11-20T16:41:33;3.80;99.90
21635;DHT22;10979;48.306;9.830;2022-11-20T16:44:00;3.80;99.90
21635;DHT22;10979;48.306;9.830;2022-11-20T16:46:28;3.70;99.90
21635;DHT22;10979;48.306;9.830;2022-11-20T16:49:01;3.70;99.90
21635;DHT22;10979;48.306;9.830;2022-11-20T16:51:28;3.70;99.90
21635;DHT22;10979;48.306;9.830;2022-11-20T16:53:54;3.70;99.90
21635;DHT22;10979;48.306;9.830;2022-11-20T16:56:24;3.70;99.90
21635;DHT22;10979;48.306;9.830;2022-11-20T16:58:52;3.60;99.90
21635;DHT22;10979;48.306;9.830;2022-11-20T17:01:19;3.60;99.90
21635;DHT22;10979;48.306;9.830;2022-11-20T17:03:47;3.50;99.90
21635;DHT22;10979;48.306;9.830;2022-11-20T17:06:19;3.50;99.90
21635;DHT22;10979;48.306;9.830;2022-11-20T17:08:46;3.50;99.90
21635;DHT22;10979;48.306;9.830;2022-11-20T17:11:14;3.40;99.90
21635;DHT22;10979;48.306;9.830;2022-11-20T17:13:41;3.40;99.90
21635;DHT22;10979;48.306;9.830;2022-11-20T17:16:12;3.40;99.90
21635;DHT22;10979;48.306;9.830;2022-11-20T17:18:38;3.40;99.90
21635;DHT22;10979;48.306;9.830;2022-11-20T17:21:04;3.50;99.90
21635;DHT22;10979;48.306;9.830;2022-11-20T17:23:31;3.50;99.90
21635;DHT22;10979;48.306;9.830;2022-11-20T17:28:36;3.50;99.90
21635;DHT22;10979;48.306;9.830;2022-11-20T17:31:05;3.50;99.90
21635;DHT22;10979;48.306;9.830;2022-11-20T17:33:32;3.40;99.90
21635;DHT22;10979;48.306;9.830;2022-11-20T17:35:58;3.40;99.90
21635;DHT22;10979;48.306;9.830;2022-11-20T17:38:23;3.40;99.90
21635;DHT22;10979;48.306;9.830;2022-11-20T17:40:49;3.40;99.90
21635;DHT22;10979;48.306;9.830;2022-11-20T17:43:15;3.40;99.90
21635;DHT22;10979;48.306;9.830;2022-11-20T17:45:41;3.40;99.90